sensor_id;sensor_type;location;lat;lon;timestamp;pressure;altitude;pressure_sealevel;temperature;humidity
75996;BME280;64681;49.738;9.004;2023-11-21T00:01:35;98833.91;;;8.69;98.61
75996;BME280;64681;49.738;9.004;2023-11-21T00:04:01;98836.66;;;8.73;97.91
75996;BME280;64681;49.738;9.004;2023-11-21T00:06:27;98835.50;;;8.95;96.94
75996;BME280;64681;49.738;9.004;2023-11-21T00:08:52;98830.50;;;9.06;96.11
75996;BME280;64681;49.738;9.004;2023-11-21T00:11:18;98830.81;;;9.05;95.79
75996;BME280;64681;49.738;9.004;2023-11-21T00:13:44;98836.59;;;9.07;95.56
75996;BME280;64681;49.738;9.004;2023-11-21T00:16:10;98830.63;;;9.22;95.26
75996;BME280;64681;49.738;9.004;2023-11-21T00:18:36;98840.81;;;9.20;94.80
75996;BME280;64681;49.738;9.004;2023-11-21T00:21:01;98837.63;;;9.14;94.99
75996;BME280;64681;49.738;9.004;2023-11-21T00:23:29;98826.63;;;9.03;95.86
75996;BME280;64681;49.738;9.004;2023-11-21T00:25:54;98834.50;;;9.00;96.06
75996;BME280;64681;49.738;9.004;2023-11-21T00:28:20;98835.81;;;8.94;96.75
75996;BME280;64681;49.738;9.004;2023-11-21T00:30:45;98837.94;;;9.00;96.30
75996;BME280;64681;49.738;9.004;2023-11-21T00:33:11;98840.16;;;8.98;96.38
75996;BME280;64681;49.738;9.004;2023-11-21T00:35:36;98835.25;;;9.13;96.23
75996;BME280;64681;49.738;9.004;2023-11-21T00:38:02;98833.16;;;9.18;95.26
75996;BME280;64681;49.738;9.004;2023-11-21T00:40:28;98833.03;;;9.27;94.75
75996;BME280;64681;49.738;9.004;2023-11-21T00:42:54;98832.28;;;9.14;95.16
75996;BME280;64681;49.738;9.004;2023-11-21T00:45:21;98837.06;;;9.09;96.22
75996;BME280;64681;49.738;9.004;2023-11-21T00:47:47;98837.06;;;9.09;96.21
75996;BME280;64681;49.738;9.004;2023-11-21T00:50:12;98831.06;;;9.12;95.65
75996;BME280;64681;49.738;9.004;2023-11-21T00:52:38;98828.59;;;9.07;96.26
75996;BME280;64681;49.738;9.004;2023-11-21T00:55:05;98824.19;;;9.11;96.33
75996;BME280;64681;49.738;9.004;2023-11-21T00:57:32;98824.72;;;9.16;96.11
75996;BME280;64681;49.738;9.004;2023-11-21T00:59:58;98827.84;;;9.18;95.75
75996;BME280;64681;49.738;9.004;2023-11-21T01:02:24;98829.94;;;9.13;95.67
75996;BME280;64681;49.738;9.004;2023-11-21T01:04:50;98821.28;;;9.16;95.15
75996;BME280;64681;49.738;9.004;2023-11-21T01:07:16;98827.97;;;9.10;96.10
75996;BME280;64681;49.738;9.004;2023-11-21T01:09:46;98823.72;;;9.09;95.96
75996;BME280;64681;49.738;9.004;2023-11-21T01:12:11;98825.97;;;9.19;95.49
75996;BME280;64681;49.738;9.004;2023-11-21T01:14:37;98830.84;;;9.29;94.83
75996;BME280;64681;49.738;9.004;2023-11-21T01:17:02;98837.94;;;9.13;95.67
75996;BME280;64681;49.738;9.004;2023-11-21T01:19:30;98842.03;;;9.10;96.45
75996;BME280;64681;49.738;9.004;2023-11-21T01:21:55;98838.03;;;9.04;96.78
75996;BME280;64681;49.738;9.004;2023-11-21T01:24:23;98839.84;;;9.12;96.63
75996;BME280;64681;49.738;9.004;2023-11-21T01:26:48;98845.38;;;9.19;95.57
75996;BME280;64681;49.738;9.004;2023-11-21T01:29:14;98846.81;;;9.17;95.74
75996;BME280;64681;49.738;9.004;2023-11-21T01:31:40;98842.38;;;9.21;95.00
75996;BME280;64681;49.738;9.004;2023-11-21T01:34:06;98843.50;;;9.32;95.07
75996;BME280;64681;49.738;9.004;2023-11-21T01:36:33;98847.91;;;9.28;94.79
75996;BME280;64681;49.738;9.004;2023-11-21T01:38:59;98844.50;;;9.15;96.13
75996;BME280;64681;49.738;9.004;2023-11-21T01:41:28;98843.59;;;9.24;95.71
75996;BME280;64681;49.738;9.004;2023-11-21T01:43:56;98844.28;;;9.21;96.06
75996;BME280;64681;49.738;9.004;2023-11-21T01:46:23;98837.16;;;9.25;95.65
75996;BME280;64681;49.738;9.004;2023-11-21T01:48:50;98839.72;;;9.21;95.60
75996;BME280;64681;49.738;9.004;2023-11-21T01:51:16;98853.47;;;9.23;96.81
75996;BME280;64681;49.738;9.004;2023-11-21T01:53:44;98847.59;;;9.17;96.80
75996;BME280;64681;49.738;9.004;2023-11-21T01:56:12;98833.72;;;9.24;95.51
75996;BME280;64681;49.738;9.004;2023-11-21T01:58:39;98851.38;;;9.29;95.59
75996;BME280;64681;49.738;9.004;2023-11-21T02:01:05;98850.47;;;9.25;96.23
75996;BME280;64681;49.738;9.004;2023-11-21T02:03:30;98854.81;;;9.17;97.04
75996;BME280;64681;49.738;9.004;2023-11-21T02:05:56;98847.94;;;9.16;96.53
75996;BME280;64681;49.738;9.004;2023-11-21T02:08:22;98846.47;;;9.18;97.19
75996;BME280;64681;49.738;9.004;2023-11-21T02:10:47;98844.16;;;9.17;96.43
75996;BME280;64681;49.738;9.004;2023-11-21T02:13:13;98846.38;;;9.02;97.84
75996;BME280;64681;49.738;9.004;2023-11-21T02:15:39;98846.03;;;8.92;98.69
75996;BME280;64681;49.738;9.004;2023-11-21T02:18:05;98837.47;;;8.98;98.45
75996;BME280;64681;49.738;9.004;2023-11-21T02:20:31;98842.69;;;8.95;98.10
75996;BME280;64681;49.738;9.004;2023-11-21T02:23:00;98844.63;;;9.19;96.61
75996;BME280;64681;49.738;9.004;2023-11-21T02:25:31;98839.22;;;8.82;99.03
75996;BME280;64681;49.738;9.004;2023-11-21T02:27:58;98844.78;;;8.77;100.00
75996;BME280;64681;49.738;9.004;2023-11-21T02:30:25;98845.03;;;8.96;98.68
75996;BME280;64681;49.738;9.004;2023-11-21T02:32:51;98849.16;;;9.06;97.86
75996;BME280;64681;49.738;9.004;2023-11-21T02:35:18;98843.81;;;9.18;97.08
75996;BME280;64681;49.738;9.004;2023-11-21T02:37:47;98841.50;;;9.17;97.46
75996;BME280;64681;49.738;9.004;2023-11-21T02:40:12;98842.91;;;9.02;97.98
75996;BME280;64681;49.738;9.004;2023-11-21T02:42:41;98846.59;;;9.10;98.72
75996;BME280;64681;49.738;9.004;2023-11-21T02:45:07;98831.72;;;9.09;98.39
75996;BME280;64681;49.738;9.004;2023-11-21T02:47:33;98840.41;;;9.18;97.11
75996;BME280;64681;49.738;9.004;2023-11-21T02:49:59;98839.63;;;9.30;96.24
75996;BME280;64681;49.738;9.004;2023-11-21T02:52:25;98840.84;;;9.32;96.06
75996;BME280;64681;49.738;9.004;2023-11-21T02:54:50;98840.72;;;9.29;95.71
75996;BME280;64681;49.738;9.004;2023-11-21T02:57:16;98840.50;;;9.34;95.95
75996;BME280;64681;49.738;9.004;2023-11-21T02:59:42;98840.38;;;9.30;96.01
75996;BME280;64681;49.738;9.004;2023-11-21T03:02:07;98851.34;;;9.16;97.19
75996;BME280;64681;49.738;9.004;2023-11-21T03:04:34;98840.94;;;9.11;98.09
75996;BME280;64681;49.738;9.004;2023-11-21T03:07:00;98848.38;;;9.18;97.64
75996;BME280;64681;49.738;9.004;2023-11-21T03:09:25;98832.72;;;9.16;98.10
75996;BME280;64681;49.738;9.004;2023-11-21T03:11:53;98833.50;;;9.17;98.46
75996;BME280;64681;49.738;9.004;2023-11-21T03:14:18;98845.06;;;9.33;97.20
75996;BME280;64681;49.738;9.004;2023-11-21T03:16:44;98838.50;;;9.31;97.20
75996;BME280;64681;49.738;9.004;2023-11-21T03:19:11;98842.38;;;9.33;96.92
75996;BME280;64681;49.738;9.004;2023-11-21T03:21:36;98839.94;;;9.28;97.51
75996;BME280;64681;49.738;9.004;2023-11-21T03:24:03;98842.69;;;8.95;99.54
75996;BME280;64681;49.738;9.004;2023-11-21T03:26:28;98848.16;;;9.11;98.66
75996;BME280;64681;49.738;9.004;2023-11-21T03:28:55;98849.47;;;9.29;97.18
75996;BME280;64681;49.738;9.004;2023-11-21T03:31:21;98849.47;;;9.29;96.84
75996;BME280;64681;49.738;9.004;2023-11-21T03:33:46;98849.47;;;9.29;97.53
75996;BME280;64681;49.738;9.004;2023-11-21T03:36:13;98848.81;;;9.20;98.53
75996;BME280;64681;49.738;9.004;2023-11-21T03:38:40;98858.69;;;9.19;98.21
75996;BME280;64681;49.738;9.004;2023-11-21T03:41:06;98850.16;;;9.26;98.45
75996;BME280;64681;49.738;9.004;2023-11-21T03:43:32;98848.25;;;9.27;97.53
75996;BME280;64681;49.738;9.004;2023-11-21T03:45:57;98848.59;;;9.38;97.34
75996;BME280;64681;49.738;9.004;2023-11-21T03:48:23;98849.38;;;9.38;96.55
75996;BME280;64681;49.738;9.004;2023-11-21T03:50:48;98855.25;;;9.44;95.94
75996;BME280;64681;49.738;9.004;2023-11-21T03:53:14;98860.69;;;9.35;96.75
75996;BME280;64681;49.738;9.004;2023-11-21T03:55:40;98856.38;;;9.18;97.54
75996;BME280;64681;49.738;9.004;2023-11-21T03:58:05;98861.25;;;9.16;98.54
75996;BME280;64681;49.738;9.004;2023-11-21T04:00:31;98860.47;;;9.15;98.51
75996;BME280;64681;49.738;9.004;2023-11-21T04:02:56;98860.66;;;8.85;100.00
75996;BME280;64681;49.738;9.004;2023-11-21T04:05:23;98863.00;;;8.99;100.00
75996;BME280;64681;49.738;9.004;2023-11-21T04:07:51;98860.47;;;9.15;98.54
75996;BME280;64681;49.738;9.004;2023-11-21T04:10:18;98861.81;;;9.22;98.55
75996;BME280;64681;49.738;9.004;2023-11-21T04:12:44;98868.03;;;9.26;98.18
75996;BME280;64681;49.738;9.004;2023-11-21T04:15:11;98876.91;;;9.30;97.52
75996;BME280;64681;49.738;9.004;2023-11-21T04:17:38;98875.44;;;9.20;98.80
75996;BME280;64681;49.738;9.004;2023-11-21T04:20:05;98872.47;;;9.22;98.42
75996;BME280;64681;49.738;9.004;2023-11-21T04:22:36;98877.13;;;9.00;99.57
75996;BME280;64681;49.738;9.004;2023-11-21T04:25:02;98884.19;;;9.08;99.55
75996;BME280;64681;49.738;9.004;2023-11-21T04:27:27;98880.00;;;9.07;100.00
75996;BME280;64681;49.738;9.004;2023-11-21T04:29:53;98890.31;;;9.21;99.25
75996;BME280;64681;49.738;9.004;2023-11-21T04:32:19;98886.31;;;9.27;98.96
75996;BME280;64681;49.738;9.004;2023-11-21T04:34:44;98888.91;;;9.36;98.13
75996;BME280;64681;49.738;9.004;2023-11-21T04:37:10;98885.44;;;9.35;97.79
75996;BME280;64681;49.738;9.004;2023-11-21T04:39:36;98892.13;;;9.42;97.12
75996;BME280;64681;49.738;9.004;2023-11-21T04:42:01;98897.00;;;9.40;96.55
75996;BME280;64681;49.738;9.004;2023-11-21T04:44:27;98889.00;;;9.40;97.35
75996;BME280;64681;49.738;9.004;2023-11-21T04:46:53;98902.66;;;9.50;96.51
75996;BME280;64681;49.738;9.004;2023-11-21T04:49:18;98894.13;;;9.45;97.05
75996;BME280;64681;49.738;9.004;2023-11-21T04:51:45;98897.00;;;9.40;97.48
75996;BME280;64681;49.738;9.004;2023-11-21T04:54:10;98902.09;;;9.20;99.00
75996;BME280;64681;49.738;9.004;2023-11-21T04:56:36;98898.53;;;9.16;99.30
75996;BME280;64681;49.738;9.004;2023-11-21T04:59:01;98907.31;;;9.29;98.52
75996;BME280;64681;49.738;9.004;2023-11-21T05:01:27;98908.34;;;9.49;96.24
75996;BME280;64681;49.738;9.004;2023-11-21T05:03:52;98908.78;;;9.39;97.30
75996;BME280;64681;49.738;9.004;2023-11-21T05:06:18;98912.53;;;9.38;97.04
75996;BME280;64681;49.738;9.004;2023-11-21T05:08:44;98912.13;;;9.48;96.32
75996;BME280;64681;49.738;9.004;2023-11-21T05:11:09;98913.09;;;9.43;96.95
75996;BME280;64681;49.738;9.004;2023-11-21T05:13:36;98916.34;;;9.49;96.61
75996;BME280;64681;49.738;9.004;2023-11-21T05:16:03;98916.22;;;9.45;96.41
75996;BME280;64681;49.738;9.004;2023-11-21T05:18:32;98920.00;;;9.44;97.12
75996;BME280;64681;49.738;9.004;2023-11-21T05:20:58;98924.00;;;9.50;96.43
75996;BME280;64681;49.738;9.004;2023-11-21T05:23:23;98920.41;;;9.46;96.32
75996;BME280;64681;49.738;9.004;2023-11-21T05:25:49;98931.88;;;9.47;96.97
75996;BME280;64681;49.738;9.004;2023-11-21T05:28:14;98934.97;;;9.61;95.20
75996;BME280;64681;49.738;9.004;2023-11-21T05:30:40;98941.16;;;9.28;98.87
75996;BME280;64681;49.738;9.004;2023-11-21T05:33:06;98940.19;;;9.33;97.43
75996;BME280;64681;49.738;9.004;2023-11-21T05:35:31;98944.63;;;9.29;99.28
75996;BME280;64681;49.738;9.004;2023-11-21T05:37:57;98952.63;;;9.29;98.58
75996;BME280;64681;49.738;9.004;2023-11-21T05:40:22;98954.81;;;9.27;98.32
75996;BME280;64681;49.738;9.004;2023-11-21T05:42:48;98953.84;;;9.19;99.69
75996;BME280;64681;49.738;9.004;2023-11-21T05:45:14;98957.72;;;9.34;98.25
75996;BME280;64681;49.738;9.004;2023-11-21T05:47:44;98951.94;;;9.32;97.84
75996;BME280;64681;49.738;9.004;2023-11-21T05:50:13;98960.63;;;9.29;98.67
75996;BME280;64681;49.738;9.004;2023-11-21T05:52:43;98960.63;;;9.41;97.43
75996;BME280;64681;49.738;9.004;2023-11-21T05:55:10;98965.72;;;9.34;97.38
75996;BME280;64681;49.738;9.004;2023-11-21T05:57:37;98969.03;;;9.18;99.31
75996;BME280;64681;49.738;9.004;2023-11-21T06:00:11;98973.03;;;9.25;98.83
75996;BME280;64681;49.738;9.004;2023-11-21T06:02:51;98973.00;;;9.12;99.62
75996;BME280;64681;49.738;9.004;2023-11-21T06:05:22;98974.81;;;9.21;98.98
75996;BME280;64681;49.738;9.004;2023-11-21T06:07:51;98979.25;;;9.29;97.78
75996;BME280;64681;49.738;9.004;2023-11-21T06:10:22;98995.91;;;9.26;98.07
75996;BME280;64681;49.738;9.004;2023-11-21T06:12:49;98982.69;;;9.29;98.70
75996;BME280;64681;49.738;9.004;2023-11-21T06:15:15;98996.38;;;9.40;97.29
75996;BME280;64681;49.738;9.004;2023-11-21T06:17:42;99001.28;;;9.38;97.44
75996;BME280;64681;49.738;9.004;2023-11-21T06:20:11;98998.03;;;9.32;98.00
75996;BME280;64681;49.738;9.004;2023-11-21T06:22:41;98999.59;;;9.33;97.69
75996;BME280;64681;49.738;9.004;2023-11-21T06:25:07;99003.81;;;9.34;97.60
75996;BME280;64681;49.738;9.004;2023-11-21T06:27:37;99004.00;;;9.29;98.42
75996;BME280;64681;49.738;9.004;2023-11-21T06:30:04;99009.03;;;9.31;97.76
75996;BME280;64681;49.738;9.004;2023-11-21T06:32:30;99012.78;;;9.30;97.87
75996;BME280;64681;49.738;9.004;2023-11-21T06:34:56;99010.06;;;9.17;98.51
75996;BME280;64681;49.738;9.004;2023-11-21T06:37:28;99020.44;;;9.31;97.48
75996;BME280;64681;49.738;9.004;2023-11-21T06:39:54;99019.53;;;9.27;98.20
75996;BME280;64681;49.738;9.004;2023-11-21T06:42:20;99032.50;;;9.16;99.02
75996;BME280;64681;49.738;9.004;2023-11-21T06:44:46;99037.28;;;9.23;98.98
75996;BME280;64681;49.738;9.004;2023-11-21T06:47:12;99036.59;;;9.14;98.75
75996;BME280;64681;49.738;9.004;2023-11-21T06:49:38;99030.72;;;8.87;100.00
75996;BME280;64681;49.738;9.004;2023-11-21T06:52:04;99039.22;;;9.01;100.00
75996;BME280;64681;49.738;9.004;2023-11-21T06:54:33;99040.28;;;9.22;98.93
75996;BME280;64681;49.738;9.004;2023-11-21T06:57:00;99032.66;;;9.32;97.66
75996;BME280;64681;49.738;9.004;2023-11-21T06:59:28;99048.72;;;9.24;97.93
75996;BME280;64681;49.738;9.004;2023-11-21T07:01:54;99042.38;;;9.16;98.42
75996;BME280;64681;49.738;9.004;2023-11-21T07:04:19;99051.72;;;9.22;98.75
75996;BME280;64681;49.738;9.004;2023-11-21T07:06:46;99052.41;;;9.31;98.13
75996;BME280;64681;49.738;9.004;2023-11-21T07:09:11;99056.97;;;9.31;98.65
75996;BME280;64681;49.738;9.004;2023-11-21T07:11:37;99062.63;;;9.29;99.01
75996;BME280;64681;49.738;9.004;2023-11-21T07:14:05;99055.56;;;9.46;97.65
75996;BME280;64681;49.738;9.004;2023-11-21T07:16:36;99067.63;;;9.64;96.48
75996;BME280;64681;49.738;9.004;2023-11-21T07:19:05;99073.59;;;9.61;97.53
75996;BME280;64681;49.738;9.004;2023-11-21T07:21:37;99085.47;;;9.64;98.04
75996;BME280;64681;49.738;9.004;2023-11-21T07:24:04;99086.81;;;9.70;97.05
75996;BME280;64681;49.738;9.004;2023-11-21T07:26:30;99089.94;;;9.72;97.29
75996;BME280;64681;49.738;9.004;2023-11-21T07:28:56;99099.28;;;9.66;96.79
75996;BME280;64681;49.738;9.004;2023-11-21T07:31:23;99099.81;;;9.59;96.33
75996;BME280;64681;49.738;9.004;2023-11-21T07:33:49;99109.56;;;9.55;95.63
75996;BME280;64681;49.738;9.004;2023-11-21T07:36:16;99110.78;;;9.45;95.82
75996;BME280;64681;49.738;9.004;2023-11-21T07:38:44;99108.75;;;9.42;96.03
75996;BME280;64681;49.738;9.004;2023-11-21T07:41:10;99116.81;;;9.33;96.98
75996;BME280;64681;49.738;9.004;2023-11-21T07:43:36;99116.16;;;9.37;96.70
75996;BME280;64681;49.738;9.004;2023-11-21T07:46:03;99113.88;;;9.47;96.92
75996;BME280;64681;49.738;9.004;2023-11-21T07:48:32;99119.13;;;9.56;96.47
75996;BME280;64681;49.738;9.004;2023-11-21T07:50:59;99119.28;;;9.39;97.42
75996;BME280;64681;49.738;9.004;2023-11-21T07:53:25;99126.78;;;9.58;95.90
75996;BME280;64681;49.738;9.004;2023-11-21T07:55:51;99122.72;;;9.39;97.48
75996;BME280;64681;49.738;9.004;2023-11-21T07:58:17;99127.44;;;9.55;97.04
75996;BME280;64681;49.738;9.004;2023-11-21T08:00:43;99133.13;;;9.65;97.13
75996;BME280;64681;49.738;9.004;2023-11-21T08:03:09;99126.09;;;9.48;97.48
75996;BME280;64681;49.738;9.004;2023-11-21T08:05:35;99137.69;;;9.65;97.20
75996;BME280;64681;49.738;9.004;2023-11-21T08:08:00;99134.38;;;9.68;96.13
75996;BME280;64681;49.738;9.004;2023-11-21T08:10:26;99135.72;;;9.74;95.72
75996;BME280;64681;49.738;9.004;2023-11-21T08:12:54;99138.22;;;9.92;94.97
75996;BME280;64681;49.738;9.004;2023-11-21T08:15:19;99138.34;;;9.95;94.10
75996;BME280;64681;49.738;9.004;2023-11-21T08:17:46;99142.75;;;9.91;95.19
75996;BME280;64681;49.738;9.004;2023-11-21T08:20:12;99137.13;;;10.05;95.55
75996;BME280;64681;49.738;9.004;2023-11-21T08:22:39;99138.25;;;10.17;95.20
75996;BME280;64681;49.738;9.004;2023-11-21T08:25:06;99132.25;;;10.07;96.11
75996;BME280;64681;49.738;9.004;2023-11-21T08:27:33;99137.47;;;10.28;96.36
75996;BME280;64681;49.738;9.004;2023-11-21T08:30:00;99137.84;;;10.52;96.14
75996;BME280;64681;49.738;9.004;2023-11-21T08:32:26;99146.16;;;10.75;94.99
75996;BME280;64681;49.738;9.004;2023-11-21T08:34:52;99143.56;;;11.03;93.51
75996;BME280;64681;49.738;9.004;2023-11-21T08:37:17;99147.84;;;11.33;90.33
75996;BME280;64681;49.738;9.004;2023-11-21T08:39:44;99155.41;;;11.31;88.82
75996;BME280;64681;49.738;9.004;2023-11-21T08:42:09;99157.28;;;10.89;90.12
75996;BME280;64681;49.738;9.004;2023-11-21T08:44:35;99156.28;;;10.69;92.08
75996;BME280;64681;49.738;9.004;2023-11-21T08:47:01;99149.84;;;10.83;91.62
75996;BME280;64681;49.738;9.004;2023-11-21T08:49:27;99164.50;;;10.27;91.96
75996;BME280;64681;49.738;9.004;2023-11-21T08:51:54;99169.44;;;10.37;92.15
75996;BME280;64681;49.738;9.004;2023-11-21T08:54:27;99170.44;;;10.45;92.60
75996;BME280;64681;49.738;9.004;2023-11-21T08:56:54;99174.09;;;10.40;92.22
75996;BME280;64681;49.738;9.004;2023-11-21T08:59:20;99178.22;;;10.38;92.03
75996;BME280;64681;49.738;9.004;2023-11-21T09:01:46;99183.75;;;10.33;92.57
75996;BME280;64681;49.738;9.004;2023-11-21T09:04:12;99193.97;;;10.30;93.16
75996;BME280;64681;49.738;9.004;2023-11-21T09:06:39;99194.69;;;10.40;93.18
75996;BME280;64681;49.738;9.004;2023-11-21T09:09:05;99195.69;;;10.48;92.21
75996;BME280;64681;49.738;9.004;2023-11-21T09:11:34;99195.44;;;10.40;91.81
75996;BME280;64681;49.738;9.004;2023-11-21T09:14:01;99200.59;;;10.58;92.70
75996;BME280;64681;49.738;9.004;2023-11-21T09:16:26;99199.47;;;10.71;91.75
75996;BME280;64681;49.738;9.004;2023-11-21T09:18:52;99200.69;;;10.99;91.64
75996;BME280;64681;49.738;9.004;2023-11-21T09:21:18;99205.56;;;10.97;90.30
75996;BME280;64681;49.738;9.004;2023-11-21T09:23:46;99204.13;;;10.87;91.14
75996;BME280;64681;49.738;9.004;2023-11-21T09:26:12;99205.69;;;10.88;90.84
75996;BME280;64681;49.738;9.004;2023-11-21T09:28:38;99209.38;;;10.83;92.48
75996;BME280;64681;49.738;9.004;2023-11-21T09:31:05;99208.47;;;10.91;92.16
75996;BME280;64681;49.738;9.004;2023-11-21T09:33:30;99216.47;;;11.04;92.29
75996;BME280;64681;49.738;9.004;2023-11-21T09:35:57;99222.25;;;11.18;90.73
75996;BME280;64681;49.738;9.004;2023-11-21T09:38:23;99218.00;;;11.30;90.75
75996;BME280;64681;49.738;9.004;2023-11-21T09:40:49;99231.47;;;11.33;87.75
75996;BME280;64681;49.738;9.004;2023-11-21T09:43:20;99232.38;;;11.37;89.13
75996;BME280;64681;49.738;9.004;2023-11-21T09:45:54;99233.69;;;11.44;89.97
75996;BME280;64681;49.738;9.004;2023-11-21T09:48:24;99236.56;;;11.51;88.66
75996;BME280;64681;49.738;9.004;2023-11-21T09:50:50;99236.00;;;11.45;88.16
75996;BME280;64681;49.738;9.004;2023-11-21T09:53:22;99243.25;;;11.45;86.46
75996;BME280;64681;49.738;9.004;2023-11-21T09:55:52;99245.88;;;11.16;88.61
75996;BME280;64681;49.738;9.004;2023-11-21T09:58:19;99248.97;;;10.81;88.33
75996;BME280;64681;49.738;9.004;2023-11-21T10:00:53;99253.75;;;10.63;87.58
75996;BME280;64681;49.738;9.004;2023-11-21T10:03:19;99254.06;;;10.16;90.14
75996;BME280;64681;49.738;9.004;2023-11-21T10:05:45;99248.72;;;10.37;90.76
75996;BME280;64681;49.738;9.004;2023-11-21T10:08:12;99255.47;;;10.34;91.84
75996;BME280;64681;49.738;9.004;2023-11-21T10:10:43;99253.66;;;10.26;92.64
75996;BME280;64681;49.738;9.004;2023-11-21T10:13:12;99261.91;;;10.33;90.95
75996;BME280;64681;49.738;9.004;2023-11-21T10:15:42;99260.72;;;10.09;92.96
75996;BME280;64681;49.738;9.004;2023-11-21T10:18:14;99262.84;;;10.04;93.09
75996;BME280;64681;49.738;9.004;2023-11-21T10:20:41;99256.38;;;10.05;93.28
75996;BME280;64681;49.738;9.004;2023-11-21T10:23:08;99259.88;;;10.18;94.40
75996;BME280;64681;49.738;9.004;2023-11-21T10:25:37;99257.41;;;10.46;92.66
75996;BME280;64681;49.738;9.004;2023-11-21T10:28:04;99262.22;;;10.53;91.35
75996;BME280;64681;49.738;9.004;2023-11-21T10:30:38;99257.19;;;10.39;91.63
75996;BME280;64681;49.738;9.004;2023-11-21T10:33:05;99264.09;;;10.40;91.91
75996;BME280;64681;49.738;9.004;2023-11-21T10:35:46;99267.53;;;10.40;92.41
75996;BME280;64681;49.738;9.004;2023-11-21T10:38:19;99271.34;;;10.64;92.82
75996;BME280;64681;49.738;9.004;2023-11-21T10:40:50;99267.91;;;10.76;91.26
75996;BME280;64681;49.738;9.004;2023-11-21T10:43:17;99268.47;;;10.94;91.19
75996;BME280;64681;49.738;9.004;2023-11-21T10:45:43;99265.25;;;11.01;88.82
75996;BME280;64681;49.738;9.004;2023-11-21T10:48:13;99270.91;;;11.12;87.18
75996;BME280;64681;49.738;9.004;2023-11-21T10:50:46;99269.25;;;10.70;87.62
75996;BME280;64681;49.738;9.004;2023-11-21T10:53:12;99284.34;;;10.20;90.06
75996;BME280;64681;49.738;9.004;2023-11-21T10:55:39;99282.19;;;10.13;90.88
75996;BME280;64681;49.738;9.004;2023-11-21T10:58:05;99285.44;;;10.40;89.67
75996;BME280;64681;49.738;9.004;2023-11-21T11:00:33;99281.81;;;10.69;87.78
75996;BME280;64681;49.738;9.004;2023-11-21T11:03:00;99282.19;;;10.80;86.62
75996;BME280;64681;49.738;9.004;2023-11-21T11:05:27;99282.94;;;10.68;86.24
75996;BME280;64681;49.738;9.004;2023-11-21T11:08:05;99285.59;;;10.35;88.11
75996;BME280;64681;49.738;9.004;2023-11-21T11:10:31;99281.34;;;10.55;86.94
75996;BME280;64681;49.738;9.004;2023-11-21T11:12:58;99276.91;;;10.59;86.73
75996;BME280;64681;49.738;9.004;2023-11-21T11:15:28;99286.09;;;10.37;87.41
75996;BME280;64681;49.738;9.004;2023-11-21T11:17:54;99278.19;;;10.07;88.28
75996;BME280;64681;49.738;9.004;2023-11-21T11:20:27;99275.41;;;10.16;88.47
75996;BME280;64681;49.738;9.004;2023-11-21T11:28:31;99278.38;;;10.23;87.12
75996;BME280;64681;49.738;9.004;2023-11-21T11:33:58;99279.34;;;10.64;85.96
75996;BME280;64681;49.738;9.004;2023-11-21T11:39:42;99277.91;;;10.54;83.42
75996;BME280;64681;49.738;9.004;2023-11-21T11:42:16;99280.16;;;11.14;84.27
75996;BME280;64681;49.738;9.004;2023-11-21T11:47:32;99282.69;;;11.23;81.85
75996;BME280;64681;49.738;9.004;2023-11-21T11:50:11;99280.16;;;11.14;81.06
75996;BME280;64681;49.738;9.004;2023-11-21T11:52:44;99281.47;;;11.45;78.53
75996;BME280;64681;49.738;9.004;2023-11-21T11:55:12;99284.44;;;11.56;79.75
75996;BME280;64681;49.738;9.004;2023-11-21T11:57:40;99275.81;;;11.75;78.14
75996;BME280;64681;49.738;9.004;2023-11-21T12:02:36;99283.09;;;12.03;77.05
75996;BME280;64681;49.738;9.004;2023-11-21T12:05:09;99282.47;;;11.81;78.43
75996;BME280;64681;49.738;9.004;2023-11-21T12:10:17;99290.09;;;11.79;77.29
75996;BME280;64681;49.738;9.004;2023-11-21T12:12:45;99299.38;;;10.70;82.45
75996;BME280;64681;49.738;9.004;2023-11-21T12:15:11;99306.13;;;11.14;81.82
75996;BME280;64681;49.738;9.004;2023-11-21T12:17:39;99303.44;;;11.26;81.25
75996;BME280;64681;49.738;9.004;2023-11-21T12:20:05;99303.84;;;10.66;84.46
75996;BME280;64681;49.738;9.004;2023-11-21T12:22:52;99309.22;;;10.91;80.53
75996;BME280;64681;49.738;9.004;2023-11-21T12:25:23;99306.53;;;11.16;79.98
75996;BME280;64681;49.738;9.004;2023-11-21T12:27:51;99305.78;;;11.15;80.36
75996;BME280;64681;49.738;9.004;2023-11-21T12:30:22;99305.41;;;11.42;78.52
75996;BME280;64681;49.738;9.004;2023-11-21T12:32:50;99297.66;;;11.12;81.43
75996;BME280;64681;49.738;9.004;2023-11-21T12:35:23;99310.78;;;11.29;81.06
75996;BME280;64681;49.738;9.004;2023-11-21T12:37:49;99302.19;;;11.89;75.92
75996;BME280;64681;49.738;9.004;2023-11-21T12:40:18;99302.88;;;11.98;75.51
75996;BME280;64681;49.738;9.004;2023-11-21T12:42:49;99304.69;;;11.69;75.45
75996;BME280;64681;49.738;9.004;2023-11-21T12:47:56;99317.09;;;12.59;74.72
75996;BME280;64681;49.738;9.004;2023-11-21T12:50:26;99318.97;;;12.59;70.08
75996;BME280;64681;49.738;9.004;2023-11-21T12:52:57;99324.16;;;12.23;69.93
75996;BME280;64681;49.738;9.004;2023-11-21T12:55:24;99327.66;;;11.70;71.87
75996;BME280;64681;49.738;9.004;2023-11-21T12:57:55;99334.31;;;11.77;73.00
75996;BME280;64681;49.738;9.004;2023-11-21T13:00:35;99331.22;;;11.62;74.27
75996;BME280;64681;49.738;9.004;2023-11-21T13:03:04;99337.34;;;11.75;75.07
75996;BME280;64681;49.738;9.004;2023-11-21T13:05:36;99339.00;;;11.80;74.75
75996;BME280;64681;49.738;9.004;2023-11-21T13:08:07;99335.97;;;11.94;75.98
75996;BME280;64681;49.738;9.004;2023-11-21T13:10:34;99333.84;;;11.99;77.99
75996;BME280;64681;49.738;9.004;2023-11-21T13:13:08;99342.78;;;11.91;77.68
75996;BME280;64681;49.738;9.004;2023-11-21T13:15:34;99343.84;;;11.49;75.19
75996;BME280;64681;49.738;9.004;2023-11-21T13:18:02;99348.09;;;11.26;76.74
75996;BME280;64681;49.738;9.004;2023-11-21T13:20:28;99346.41;;;11.46;76.72
75996;BME280;64681;49.738;9.004;2023-11-21T13:22:57;99353.78;;;11.36;75.48
75996;BME280;64681;49.738;9.004;2023-11-21T13:25:25;99350.75;;;11.50;75.69
75996;BME280;64681;49.738;9.004;2023-11-21T13:28:00;99360.44;;;11.55;76.64
75996;BME280;64681;49.738;9.004;2023-11-21T13:30:29;99360.56;;;11.46;75.48